createdAt,value
2018-11-21T00:00:30.268Z,20.20
2018-11-21T00:01:30.223Z,21.50
2018-11-21T00:02:30.180Z,19.90
2018-11-21T00:03:30.140Z,20.40
2018-11-21T00:06:02.196Z,20.80
2018-11-21T00:07:02.132Z,23.70
2018-11-21T00:08:02.092Z,22.40
2018-11-21T00:09:02.047Z,22.70
2018-11-21T00:10:01.999Z,21.90
2018-11-21T00:11:01.960Z,21.90
2018-11-21T00:12:01.916Z,21.70
2018-11-21T00:13:01.876Z,23.00
2018-11-21T00:14:01.831Z,21.60
2018-11-21T00:15:01.784Z,22.00
2018-11-21T00:16:01.740Z,21.30
2018-11-21T00:17:01.699Z,21.30
2018-11-21T00:18:01.655Z,22.30
2018-11-21T00:19:01.615Z,22.20
2018-11-21T00:20:01.569Z,22.20
2018-11-21T00:21:01.527Z,21.70
2018-11-21T00:22:01.490Z,22.30
2018-11-21T00:23:01.438Z,21.60
2018-11-21T00:24:01.399Z,22.60
2018-11-21T00:25:01.360Z,22.60
2018-11-21T00:26:01.317Z,20.50
2018-11-21T00:27:01.264Z,22.30
2018-11-21T00:28:01.229Z,23.30
2018-11-21T00:29:01.180Z,21.20
2018-11-21T00:30:01.139Z,21.10
2018-11-21T00:31:01.098Z,20.50
2018-11-21T00:32:01.052Z,21.30
2018-11-21T00:33:01.008Z,20.40
2018-11-21T00:34:00.967Z,21.30
2018-11-21T00:35:00.918Z,20.80
2018-11-21T00:36:00.878Z,21.30
2018-11-21T00:37:00.834Z,22.20
2018-11-21T00:38:00.792Z,22.00
2018-11-21T00:39:00.751Z,21.70
2018-11-21T00:40:00.710Z,22.30
2018-11-21T00:41:00.670Z,22.20
2018-11-21T00:42:00.619Z,23.20
2018-11-21T00:43:00.578Z,24.20
2018-11-21T00:44:00.534Z,22.00
2018-11-21T00:45:00.495Z,24.50
2018-11-21T00:46:00.450Z,22.80
2018-11-21T00:47:00.402Z,21.70
2018-11-21T00:48:00.359Z,22.90
2018-11-21T00:49:00.316Z,23.20
2018-11-21T00:50:00.271Z,22.10
2018-11-21T00:51:00.234Z,23.80
2018-11-21T00:52:00.188Z,22.40
2018-11-21T00:53:00.145Z,23.60
2018-11-21T00:54:00.135Z,23.80
2018-11-21T00:55:00.055Z,24.60
2018-11-21T00:56:00.014Z,24.30
2018-11-21T00:57:00.451Z,23.00
2018-11-21T00:57:59.933Z,24.70
2018-11-21T00:58:59.881Z,21.40
2018-11-21T00:59:59.840Z,22.30
2018-11-21T01:00:59.803Z,23.10
2018-11-21T01:01:59.768Z,25.30
2018-11-21T01:02:59.714Z,24.60
2018-11-21T01:03:59.672Z,23.60
2018-11-21T01:04:59.669Z,24.60
2018-11-21T01:05:59.587Z,24.70
2018-11-21T01:06:59.537Z,26.10
2018-11-21T01:07:59.497Z,24.80
2018-11-21T01:08:59.453Z,24.80
2018-11-21T01:09:59.412Z,25.00
2018-11-21T01:10:59.368Z,26.20
2018-11-21T01:11:59.327Z,23.70
2018-11-21T01:12:59.280Z,22.10
2018-11-21T01:13:59.234Z,24.50
2018-11-21T01:14:59.196Z,25.00
2018-11-21T01:15:59.154Z,25.30
2018-11-21T01:16:59.108Z,26.20
2018-11-21T01:17:59.069Z,25.40
2018-11-21T01:18:59.021Z,26.20
2018-11-21T01:19:58.976Z,23.10
2018-11-21T01:20:58.934Z,22.60
2018-11-21T01:21:58.889Z,25.90
2018-11-21T01:22:58.851Z,23.30
2018-11-21T01:23:58.810Z,23.60
2018-11-21T01:24:58.763Z,24.10
2018-11-21T01:25:58.723Z,24.00
2018-11-21T01:26:58.672Z,23.60
2018-11-21T01:27:58.632Z,24.40
2018-11-21T01:28:58.591Z,23.20
2018-11-21T01:29:58.549Z,24.00
2018-11-21T01:30:58.502Z,24.30
2018-11-21T01:31:58.467Z,22.90
2018-11-21T01:32:58.415Z,24.00
2018-11-21T01:33:58.371Z,25.10
2018-11-21T01:34:58.333Z,23.40
2018-11-21T01:35:58.293Z,25.30
2018-11-21T01:36:58.245Z,24.80
2018-11-21T01:37:58.206Z,25.70
2018-11-21T01:38:58.158Z,24.90
2018-11-21T01:39:58.113Z,27.80
2018-11-21T01:40:58.074Z,24.20
2018-11-21T01:41:58.025Z,24.40
2018-11-21T01:42:57.987Z,23.30
2018-11-21T01:43:57.941Z,25.70
2018-11-21T01:44:57.897Z,23.90
2018-11-21T01:45:57.852Z,24.50
2018-11-21T01:46:57.816Z,23.40
2018-11-21T01:47:57.769Z,24.70
2018-11-21T01:48:57.727Z,23.30
2018-11-21T01:49:57.685Z,24.00
2018-11-21T01:50:57.635Z,25.90
2018-11-21T01:51:57.602Z,24.60
2018-11-21T01:52:57.557Z,25.40
2018-11-21T01:53:57.507Z,23.20
2018-11-21T01:54:57.472Z,24.10
2018-11-21T01:55:57.424Z,25.00
2018-11-21T01:56:57.381Z,24.80
2018-11-21T01:57:57.342Z,26.00
2018-11-21T01:58:57.290Z,25.50
2018-11-21T01:59:57.251Z,25.40
2018-11-21T02:00:57.209Z,25.80
2018-11-21T02:01:57.167Z,27.40
2018-11-21T02:02:57.118Z,27.40
2018-11-21T02:03:57.078Z,26.10
2018-11-21T02:04:57.037Z,26.10
2018-11-21T02:05:56.991Z,27.00
2018-11-21T02:06:56.952Z,26.70
2018-11-21T02:07:56.906Z,27.50
2018-11-21T02:08:56.863Z,26.90
2018-11-21T02:09:56.823Z,27.40
2018-11-21T02:10:56.774Z,27.30
2018-11-21T02:11:56.733Z,28.40
2018-11-21T02:12:56.690Z,26.40
2018-11-21T02:13:56.646Z,27.40
2018-11-21T02:14:56.624Z,25.80
2018-11-21T02:15:56.561Z,28.40
2018-11-21T02:16:56.516Z,26.30
2018-11-21T02:17:56.473Z,26.60
2018-11-21T02:18:56.438Z,29.00
2018-11-21T02:19:56.388Z,29.50
2018-11-21T02:20:56.345Z,28.70
2018-11-21T02:21:56.306Z,27.40
2018-11-21T02:22:56.254Z,29.40
2018-11-21T02:23:56.212Z,28.00
2018-11-21T02:24:56.169Z,27.30
2018-11-21T02:25:56.125Z,27.10
2018-11-21T02:26:56.089Z,26.50
2018-11-21T02:27:56.041Z,27.00
2018-11-21T02:28:56.000Z,27.90
2018-11-21T02:29:55.976Z,28.50
2018-11-21T02:30:55.909Z,26.10
2018-11-21T02:31:55.882Z,27.90
2018-11-21T02:32:55.826Z,27.40
2018-11-21T02:33:55.784Z,27.30
2018-11-21T02:34:55.735Z,26.70
2018-11-21T02:35:55.695Z,29.50
2018-11-21T02:36:55.655Z,26.30
2018-11-21T02:37:55.606Z,28.30
2018-11-21T02:38:55.568Z,25.60
2018-11-21T02:39:55.523Z,25.60
2018-11-21T02:40:55.479Z,26.80
2018-11-21T02:41:55.439Z,27.10
2018-11-21T02:42:55.389Z,29.60
2018-11-21T02:43:55.353Z,28.50
2018-11-21T02:44:55.304Z,29.30
2018-11-21T02:45:55.260Z,28.90
2018-11-21T02:46:55.221Z,28.10
2018-11-21T02:47:55.179Z,28.60
2018-11-21T02:48:55.131Z,27.50
2018-11-21T02:49:55.091Z,28.30
2018-11-21T02:50:55.050Z,27.70
2018-11-21T02:51:55.006Z,27.00
2018-11-21T02:52:54.962Z,27.70
2018-11-21T02:53:54.924Z,26.40
2018-11-21T02:54:54.868Z,27.10
2018-11-21T02:55:54.832Z,27.10
2018-11-21T02:56:54.787Z,26.70
2018-11-21T02:57:54.742Z,27.40
2018-11-21T02:58:54.702Z,25.60
2018-11-21T02:59:54.659Z,27.30
2018-11-21T03:00:54.617Z,24.70
2018-11-21T03:01:54.573Z,28.30
2018-11-21T03:02:54.523Z,25.40
2018-11-21T03:03:54.482Z,26.30
2018-11-21T03:04:54.441Z,25.70
2018-11-21T03:05:54.400Z,27.10
2018-11-21T03:06:54.349Z,27.10
2018-11-21T03:07:54.308Z,26.90
2018-11-21T03:08:54.267Z,27.30
2018-11-21T03:09:54.225Z,27.70
2018-11-21T03:10:54.183Z,27.40
2018-11-21T03:11:54.137Z,26.50
2018-11-21T03:12:54.099Z,27.10
2018-11-21T03:13:54.053Z,27.90
2018-11-21T03:14:54.012Z,26.00
2018-11-21T03:15:53.965Z,25.50
2018-11-21T03:16:53.920Z,27.40
2018-11-21T03:17:53.876Z,27.30
2018-11-21T03:18:53.837Z,28.30
2018-11-21T03:19:53.799Z,25.70
2018-11-21T03:20:53.746Z,25.60
2018-11-21T03:21:53.703Z,26.90
2018-11-21T03:22:53.666Z,26.40
2018-11-21T03:23:53.619Z,28.30
2018-11-21T03:24:53.576Z,25.70
2018-11-21T03:25:53.536Z,28.80
2018-11-21T03:26:53.486Z,27.20
2018-11-21T03:27:53.451Z,27.10
2018-11-21T03:28:53.401Z,26.60
2018-11-21T03:29:53.363Z,26.80
2018-11-21T03:30:53.322Z,27.50
2018-11-21T03:31:53.276Z,26.00
2018-11-21T03:32:53.231Z,26.90
2018-11-21T03:33:57.665Z,26.50
2018-11-21T03:34:53.142Z,27.50
2018-11-21T03:35:53.110Z,26.20
2018-11-21T03:36:53.058Z,25.40
2018-11-21T03:37:53.018Z,26.60
2018-11-21T03:38:52.978Z,26.70
2018-11-21T03:39:52.927Z,26.80
2018-11-21T03:40:52.884Z,28.30
2018-11-21T03:41:52.841Z,27.20
2018-11-21T03:42:52.801Z,27.30
2018-11-21T03:43:52.757Z,28.30
2018-11-21T03:44:52.716Z,28.90
2018-11-21T03:45:52.675Z,28.10
2018-11-21T03:46:52.627Z,27.30
2018-11-21T03:47:52.582Z,27.40
2018-11-21T03:48:52.538Z,27.40
2018-11-21T03:49:52.497Z,28.60
2018-11-21T03:50:52.455Z,28.50
2018-11-21T03:51:52.415Z,28.30
2018-11-21T04:06:35.036Z,31.50
2018-11-21T04:07:34.946Z,32.60
2018-11-21T04:08:34.902Z,35.30
2018-11-21T04:09:34.865Z,35.20
2018-11-21T04:10:34.808Z,32.50
2018-11-21T04:11:34.762Z,34.30
2018-11-21T04:12:34.720Z,33.20
2018-11-21T04:13:34.672Z,31.50
2018-11-21T04:14:34.625Z,31.40
2018-11-21T04:15:34.581Z,30.60
2018-11-21T04:16:34.538Z,31.20
2018-11-21T04:17:34.500Z,32.60
2018-11-21T04:18:34.449Z,35.30
2018-11-21T04:19:34.406Z,31.80
2018-11-21T04:20:34.367Z,33.10
2018-11-21T04:21:34.317Z,31.60
2018-11-21T04:22:34.272Z,32.10
2018-11-21T04:23:34.232Z,30.40
2018-11-21T04:24:34.184Z,30.10
2018-11-21T04:25:34.149Z,29.90
2018-11-21T04:26:34.101Z,29.90
2018-11-21T04:27:34.054Z,30.20
2018-11-21T04:28:34.009Z,29.90
2018-11-21T04:29:33.973Z,30.50
2018-11-21T04:30:33.927Z,31.60
2018-11-21T04:31:33.882Z,31.60
2018-11-21T04:32:33.848Z,31.90
2018-11-21T04:33:33.792Z,30.20
2018-11-21T04:34:33.755Z,31.10
2018-11-21T04:35:33.710Z,30.20
2018-11-21T04:36:33.667Z,28.90
2018-11-21T04:37:33.628Z,28.40
2018-11-21T04:38:33.580Z,31.90
2018-11-21T04:39:33.541Z,29.30
2018-11-21T04:40:33.502Z,30.20
2018-11-21T04:41:33.465Z,29.20
2018-11-21T04:42:33.444Z,28.80
2018-11-21T04:43:33.367Z,30.00
2018-11-21T04:44:33.329Z,29.00
2018-11-21T04:45:33.273Z,29.30
2018-11-21T04:46:33.231Z,29.30
2018-11-21T04:47:33.189Z,29.30
2018-11-21T04:48:33.146Z,31.40
2018-11-21T04:49:33.112Z,30.90
2018-11-21T04:50:33.061Z,28.50
2018-11-21T04:51:33.021Z,29.40
2018-11-21T04:52:32.975Z,28.50
2018-11-21T04:53:32.931Z,28.70
2018-11-21T04:54:32.886Z,28.10
2018-11-21T04:55:32.852Z,29.30
2018-11-21T04:56:32.802Z,30.00
2018-11-21T04:57:32.762Z,30.50
2018-11-21T04:58:32.740Z,28.50
2018-11-21T04:59:32.670Z,29.40
2018-11-21T05:00:32.630Z,28.00
2018-11-21T05:01:32.602Z,27.20
2018-11-21T05:02:33.008Z,28.30
2018-11-21T05:03:32.505Z,28.90
2018-11-21T05:04:32.460Z,28.40
2018-11-21T05:05:32.415Z,28.40
2018-11-21T05:06:32.370Z,28.70
2018-11-21T05:07:32.330Z,27.60
2018-11-21T05:08:32.290Z,27.60
2018-11-21T05:09:32.245Z,28.70
2018-11-21T05:10:32.204Z,27.40
2018-11-21T05:11:32.167Z,27.80
2018-11-21T05:12:32.117Z,28.60
2018-11-21T05:13:32.072Z,28.00
2018-11-21T05:14:32.026Z,27.00
2018-11-21T05:15:31.989Z,28.80
2018-11-21T05:16:31.944Z,27.50
2018-11-21T05:17:31.900Z,27.90
2018-11-21T05:18:31.857Z,27.10
2018-11-21T05:19:31.831Z,29.00
2018-11-21T05:20:31.771Z,27.20
2018-11-21T05:21:31.733Z,28.70
2018-11-21T05:22:31.688Z,28.40
2018-11-21T05:23:31.647Z,28.10
2018-11-21T05:24:31.602Z,28.80
2018-11-21T05:25:31.556Z,28.90
2018-11-21T05:26:31.512Z,28.00
2018-11-21T05:27:31.469Z,29.70
2018-11-21T05:28:31.427Z,27.40
2018-11-21T05:29:31.389Z,28.10
2018-11-21T05:30:31.345Z,26.90
2018-11-21T05:31:31.296Z,26.30
2018-11-21T05:32:31.256Z,29.00
2018-11-21T05:33:31.216Z,26.90
2018-11-21T05:34:31.173Z,28.80
2018-11-21T05:35:31.133Z,27.90
2018-11-21T05:36:31.091Z,28.10
2018-11-21T05:37:31.041Z,29.70
2018-11-21T05:38:30.997Z,28.90
2018-11-21T05:39:30.953Z,30.40
2018-11-21T05:40:30.912Z,28.30
2018-11-21T05:41:30.874Z,28.70
2018-11-21T05:42:30.831Z,28.30
2018-11-21T05:43:30.788Z,26.60
2018-11-21T05:44:31.530Z,28.30
2018-11-21T05:45:30.698Z,27.50
2018-11-21T05:46:30.652Z,28.10
2018-11-21T05:47:30.616Z,27.90
2018-11-21T05:48:30.573Z,27.20
2018-11-21T05:49:30.528Z,29.70
2018-11-21T05:50:30.484Z,27.60
2018-11-21T05:51:30.447Z,25.70
2018-11-21T05:52:30.405Z,27.30
2018-11-21T05:53:30.360Z,27.40
2018-11-21T05:54:30.324Z,26.60
2018-11-21T05:55:30.277Z,25.50
2018-11-21T05:56:30.231Z,27.60
2018-11-21T05:57:30.184Z,28.50
2018-11-21T05:58:30.139Z,27.30
2018-11-21T05:59:30.096Z,28.00
2018-11-21T06:00:30.056Z,30.50
2018-11-21T06:01:30.017Z,28.40
2018-11-21T06:02:29.974Z,28.50
2018-11-21T06:03:29.924Z,29.40
2018-11-21T06:04:29.900Z,31.00
2018-11-21T06:05:29.844Z,30.00
2018-11-21T06:06:29.802Z,29.10
2018-11-21T06:07:29.759Z,29.60
2018-11-21T06:08:29.715Z,29.70
2018-11-21T06:09:29.675Z,29.60
2018-11-21T06:10:29.624Z,29.20
2018-11-21T06:11:29.584Z,29.60
2018-11-21T06:12:29.542Z,28.70
2018-11-21T06:13:29.502Z,29.90
2018-11-21T06:14:29.458Z,29.40
2018-11-21T06:15:29.414Z,28.80
2018-11-21T06:16:29.373Z,30.70
2018-11-21T06:17:29.326Z,30.10
2018-11-21T06:18:29.280Z,27.90
2018-11-21T06:19:29.244Z,30.80
2018-11-21T06:20:29.199Z,31.90
2018-11-21T06:21:29.158Z,29.00
2018-11-21T06:22:29.108Z,28.70
2018-11-21T06:23:29.066Z,29.60
2018-11-21T06:24:29.025Z,30.30
2018-11-21T06:25:28.985Z,29.00
2018-11-21T06:26:28.944Z,30.00
2018-11-21T06:27:28.899Z,30.30
2018-11-21T06:28:28.855Z,30.90
2018-11-21T06:29:28.815Z,29.40
2018-11-21T06:30:28.764Z,31.00
2018-11-21T06:31:28.723Z,29.80
2018-11-21T06:32:28.681Z,29.20
2018-11-21T06:33:28.640Z,28.40
2018-11-21T06:34:32.725Z,29.90
2018-11-21T06:35:28.550Z,28.00
2018-11-21T06:36:28.515Z,29.80
2018-11-21T06:37:28.468Z,28.60
2018-11-21T06:38:28.426Z,28.40
2018-11-21T06:39:28.383Z,29.40
2018-11-21T06:40:28.337Z,28.10
2018-11-21T06:41:28.296Z,28.50
2018-11-21T06:42:28.247Z,29.30
2018-11-21T06:43:28.212Z,28.00
2018-11-21T06:44:28.164Z,29.70
2018-11-21T06:45:28.124Z,28.80
2018-11-21T06:46:28.088Z,29.50
2018-11-21T06:47:28.041Z,28.20
2018-11-21T06:48:27.995Z,28.70
2018-11-21T06:49:27.950Z,28.70
2018-11-21T06:50:27.903Z,28.50
2018-11-21T06:51:27.914Z,30.20
2018-11-21T06:52:27.821Z,28.70
2018-11-21T06:53:27.779Z,30.80
2018-11-21T06:54:27.731Z,30.30
2018-11-21T06:55:27.690Z,31.10
2018-11-21T06:56:27.650Z,30.90
2018-11-21T06:57:27.610Z,30.70
2018-11-21T06:58:27.566Z,29.80
2018-11-21T06:59:27.522Z,30.70
2018-11-21T07:00:27.479Z,30.20
2018-11-21T07:01:27.436Z,32.50
2018-11-21T07:02:27.387Z,30.20
2018-11-21T07:03:27.347Z,31.10
2018-11-21T07:04:27.321Z,29.70
2018-11-21T07:05:27.264Z,28.60
2018-11-21T07:06:27.220Z,30.90
2018-11-21T07:07:27.172Z,31.10
2018-11-21T07:08:27.135Z,30.60
2018-11-21T07:09:27.090Z,29.60
2018-11-21T07:10:27.049Z,28.40
2018-11-21T07:11:27.068Z,29.70
2018-11-21T07:12:26.962Z,30.40
2018-11-21T07:13:26.921Z,30.50
2018-11-21T07:14:26.871Z,32.70
2018-11-21T07:15:26.828Z,31.90
2018-11-21T07:16:26.790Z,28.30
2018-11-21T07:17:26.746Z,29.50
2018-11-21T07:18:26.711Z,29.70
2018-11-21T07:19:26.660Z,30.00
2018-11-21T07:20:26.624Z,28.80
2018-11-21T07:21:26.572Z,29.90
2018-11-21T07:22:26.528Z,30.00
2018-11-21T07:23:26.495Z,30.50
2018-11-21T07:24:26.523Z,31.20
2018-11-21T07:25:26.404Z,28.90
2018-11-21T07:26:26.365Z,29.40
2018-11-21T07:27:26.314Z,29.70
2018-11-21T07:28:26.274Z,26.80
2018-11-21T07:29:26.231Z,30.20
2018-11-21T07:30:26.189Z,29.80
2018-11-21T07:31:26.146Z,30.10
2018-11-21T07:32:26.102Z,30.70
2018-11-21T07:33:26.056Z,30.50
2018-11-21T07:34:26.012Z,31.00
2018-11-21T07:35:25.967Z,29.40
2018-11-21T07:36:25.928Z,28.20
2018-11-21T07:37:25.886Z,28.80
2018-11-21T07:38:25.844Z,29.00
2018-11-21T07:39:25.797Z,29.10
2018-11-21T07:40:25.758Z,32.40
2018-11-21T07:41:25.728Z,28.10
2018-11-21T07:42:25.676Z,30.40
2018-11-21T07:43:25.630Z,29.60
2018-11-21T07:44:25.586Z,28.40
2018-11-21T07:45:25.544Z,30.90
2018-11-21T07:46:25.498Z,27.50
2018-11-21T07:47:26.662Z,29.00
2018-11-21T07:48:25.411Z,32.00
2018-11-21T07:49:25.371Z,28.20
2018-11-21T07:50:25.333Z,29.80
2018-11-21T07:51:25.286Z,29.00
2018-11-21T07:52:25.242Z,29.10
2018-11-21T07:53:25.198Z,28.40
2018-11-21T07:54:25.150Z,29.40
2018-11-21T07:55:25.115Z,29.50
2018-11-21T07:56:25.070Z,28.70
2018-11-21T07:57:25.028Z,28.50
2018-11-21T07:58:24.979Z,29.80
2018-11-21T07:59:24.937Z,27.60
2018-11-21T08:00:24.901Z,28.20
2018-11-21T08:01:24.859Z,27.40
2018-11-21T08:02:25.639Z,27.80
2018-11-21T08:03:24.772Z,29.50
2018-11-21T08:04:24.728Z,29.80
2018-11-21T08:05:24.711Z,28.50
2018-11-21T08:06:24.640Z,29.80
2018-11-21T08:07:24.597Z,30.10
2018-11-21T08:08:24.553Z,28.30
2018-11-21T08:09:24.512Z,28.50
2018-11-21T08:10:24.472Z,28.30
2018-11-21T08:11:24.428Z,26.90
2018-11-21T08:12:24.384Z,28.10
2018-11-21T08:13:24.347Z,28.20
2018-11-21T08:14:24.301Z,26.70
2018-11-21T08:15:24.266Z,28.20
2018-11-21T08:16:25.129Z,27.70
2018-11-21T08:17:24.169Z,29.50
2018-11-21T08:18:24.122Z,31.10
2018-11-21T08:19:24.080Z,27.90
2018-11-21T08:20:24.049Z,30.30
2018-11-21T08:21:23.999Z,31.40
2018-11-21T08:22:23.957Z,30.60
2018-11-21T08:23:23.923Z,32.10
2018-11-21T08:24:23.873Z,30.10
2018-11-21T08:25:23.833Z,31.70
2018-11-21T08:26:23.784Z,30.10
2018-11-21T08:27:23.746Z,29.20
2018-11-21T08:28:23.708Z,28.60
2018-11-21T08:29:23.656Z,31.10
2018-11-21T08:30:24.134Z,30.60
2018-11-21T08:31:23.571Z,27.80
2018-11-21T08:32:23.530Z,29.30
2018-11-21T08:33:23.487Z,31.30
2018-11-21T08:34:23.449Z,28.40
2018-11-21T08:35:23.403Z,29.30
2018-11-21T08:36:23.357Z,30.40
2018-11-21T08:37:23.315Z,32.20
2018-11-21T08:38:23.266Z,28.80
2018-11-21T08:39:23.225Z,30.50
2018-11-21T08:40:23.184Z,28.50
2018-11-21T08:41:23.144Z,29.90
2018-11-21T08:42:23.100Z,30.70
2018-11-21T08:43:23.061Z,30.40
2018-11-21T08:44:23.014Z,29.50
2018-11-21T08:45:22.972Z,28.00
2018-11-21T08:46:22.929Z,28.90
2018-11-21T08:47:22.887Z,30.50
2018-11-21T08:48:22.840Z,28.80
2018-11-21T08:49:22.796Z,29.40
2018-11-21T08:50:22.749Z,29.80
2018-11-21T08:51:22.709Z,28.10
2018-11-21T08:52:22.667Z,28.10
2018-11-21T08:53:22.625Z,29.40
2018-11-21T08:54:22.585Z,30.60
2018-11-21T08:55:22.543Z,28.60
2018-11-21T08:56:22.496Z,28.90
2018-11-21T08:57:22.462Z,28.10
2018-11-21T08:58:22.405Z,29.10
2018-11-21T08:59:22.372Z,30.60
2018-11-21T09:00:22.342Z,30.20
2018-11-21T09:01:22.280Z,29.80
2018-11-21T09:02:22.237Z,30.70
2018-11-21T09:03:22.193Z,28.40
2018-11-21T09:04:22.151Z,27.80
2018-11-21T09:05:22.112Z,29.70
2018-11-21T09:06:22.068Z,28.00
2018-11-21T09:07:22.025Z,28.20
2018-11-21T09:08:21.984Z,27.60
2018-11-21T09:09:21.934Z,30.70
2018-11-21T09:10:21.896Z,30.30
2018-11-21T09:11:21.851Z,30.70
2018-11-21T09:12:21.810Z,30.50
2018-11-21T09:13:21.769Z,30.70
2018-11-21T09:14:21.723Z,28.20
2018-11-21T09:15:21.684Z,28.40
2018-11-21T09:16:21.634Z,29.40
2018-11-21T09:17:21.598Z,27.90
2018-11-21T09:18:21.551Z,28.60
2018-11-21T09:19:21.509Z,26.80
2018-11-21T09:20:21.468Z,28.20
2018-11-21T09:21:21.419Z,29.10
2018-11-21T09:22:21.393Z,29.40
2018-11-21T09:23:21.338Z,29.30
2018-11-21T09:24:21.291Z,27.40
2018-11-21T09:25:21.255Z,29.80
2018-11-21T09:26:21.208Z,28.50
2018-11-21T09:27:21.166Z,28.70
2018-11-21T09:28:21.127Z,28.90
2018-11-21T09:29:21.076Z,28.20
2018-11-21T09:30:21.041Z,32.60
2018-11-21T09:31:20.994Z,26.50
2018-11-21T09:32:20.953Z,28.40
2018-11-21T09:33:20.904Z,27.60
2018-11-21T09:34:20.862Z,27.70
2018-11-21T09:35:20.821Z,29.10
2018-11-21T09:36:20.780Z,28.00
2018-11-21T09:37:20.739Z,29.40
2018-11-21T09:38:20.693Z,28.40
2018-11-21T09:39:20.651Z,30.40
2018-11-21T09:40:20.612Z,28.80
2018-11-21T09:41:20.562Z,29.30
2018-11-21T09:42:20.522Z,27.90
2018-11-21T09:43:20.477Z,29.70
2018-11-21T09:44:20.432Z,29.50
2018-11-21T09:45:20.396Z,28.10
2018-11-21T09:46:20.375Z,28.60
2018-11-21T09:47:20.307Z,29.40
2018-11-21T09:48:20.263Z,29.80
2018-11-21T09:49:20.224Z,30.20
2018-11-21T09:50:20.183Z,30.20
2018-11-21T09:51:20.133Z,28.80
2018-11-21T09:52:20.095Z,32.20
2018-11-21T09:53:20.047Z,29.70
2018-11-21T09:54:20.047Z,28.50
2018-11-21T09:55:19.967Z,28.50
2018-11-21T09:56:19.917Z,29.20
2018-11-21T09:57:19.882Z,28.20
2018-11-21T09:58:19.839Z,29.00
2018-11-21T09:59:19.793Z,29.60
2018-11-21T10:00:19.755Z,27.60
2018-11-21T10:01:19.704Z,28.40
2018-11-21T10:02:19.662Z,29.80
2018-11-21T10:03:19.622Z,29.60
2018-11-21T10:04:19.581Z,29.70
2018-11-21T10:05:19.533Z,27.90
2018-11-21T10:19:59.440Z,25.40
2018-11-21T10:20:59.378Z,30.40
2018-11-21T10:21:59.323Z,29.20
2018-11-21T10:22:59.278Z,30.30
2018-11-21T10:23:59.236Z,29.70
2018-11-21T10:24:59.190Z,28.40
2018-11-21T10:25:59.147Z,27.10
2018-11-21T10:26:59.103Z,27.50
2018-11-21T10:27:59.057Z,29.20
2018-11-21T10:28:59.011Z,27.80
2018-11-21T10:29:58.972Z,28.40
2018-11-21T10:30:58.927Z,27.50
2018-11-21T10:31:58.880Z,25.90
2018-11-21T10:32:58.836Z,27.20
2018-11-21T10:33:58.792Z,27.50
2018-11-21T10:34:58.753Z,26.50
2018-11-21T10:35:58.711Z,26.10
2018-11-21T10:36:58.668Z,27.00
2018-11-21T10:37:58.628Z,26.50
2018-11-21T10:38:58.587Z,26.60
2018-11-21T10:39:58.538Z,25.90
2018-11-21T10:40:58.491Z,27.70
2018-11-21T10:41:58.451Z,25.40
2018-11-21T10:42:58.409Z,26.40
2018-11-21T10:43:58.369Z,26.30
2018-11-21T10:44:58.322Z,27.10
2018-11-21T10:45:58.278Z,26.10
2018-11-21T10:46:58.235Z,26.90
2018-11-21T10:47:58.197Z,28.80
2018-11-21T10:48:58.151Z,26.90
2018-11-21T10:49:58.116Z,28.70
2018-11-21T10:50:58.070Z,26.00
2018-11-21T10:51:58.022Z,27.60
2018-11-21T10:52:57.980Z,26.00
2018-11-21T10:53:57.938Z,26.60
2018-11-21T10:54:57.896Z,25.10
2018-11-21T10:55:57.856Z,25.70
2018-11-21T10:56:57.815Z,25.90
2018-11-21T10:57:57.770Z,24.10
2018-11-21T10:58:57.729Z,26.40
2018-11-21T10:59:57.681Z,24.50
2018-11-21T11:00:57.643Z,24.50
2018-11-21T11:01:57.601Z,26.70
2018-11-21T11:02:57.562Z,27.60
2018-11-21T11:03:57.556Z,23.50
2018-11-21T11:04:57.471Z,26.90
2018-11-21T11:05:57.430Z,24.50
2018-11-21T11:06:57.386Z,22.70
2018-11-21T11:07:57.349Z,26.50
2018-11-21T11:08:57.305Z,24.40
2018-11-21T11:09:57.263Z,23.00
2018-11-21T11:10:57.224Z,24.60
2018-11-21T11:11:57.174Z,22.80
2018-11-21T11:12:57.138Z,23.40
2018-11-21T11:13:57.092Z,24.30
2018-11-21T11:14:57.048Z,24.70
2018-11-21T11:15:57.011Z,22.80
2018-11-21T11:16:56.970Z,23.20
2018-11-21T11:17:59.498Z,24.70
2018-11-21T11:18:56.892Z,25.40
2018-11-21T11:19:56.848Z,23.80
2018-11-21T11:20:56.824Z,22.80
2018-11-21T11:21:56.763Z,22.80
2018-11-21T11:22:56.724Z,26.20
2018-11-21T11:23:56.672Z,23.70
2018-11-21T11:24:56.630Z,24.60
2018-11-21T11:25:56.589Z,25.50
2018-11-21T11:26:56.545Z,24.40
2018-11-21T11:27:56.532Z,23.10
2018-11-21T11:28:56.464Z,23.50
2018-11-21T11:29:56.428Z,23.40
2018-11-21T11:30:56.383Z,24.70
2018-11-21T11:31:56.335Z,23.40
2018-11-21T11:32:56.297Z,23.00
2018-11-21T11:33:56.257Z,23.70
2018-11-21T11:34:56.217Z,22.90
2018-11-21T11:35:56.167Z,25.50
2018-11-21T11:36:56.133Z,24.10
2018-11-21T11:37:56.087Z,24.50
2018-11-21T11:38:56.043Z,22.70
2018-11-21T11:39:56.007Z,24.80
2018-11-21T11:40:55.964Z,25.70
2018-11-21T11:41:55.923Z,21.90
2018-11-21T11:42:55.880Z,25.70
2018-11-21T11:43:55.836Z,22.90
2018-11-21T11:44:55.817Z,22.80
2018-11-21T11:45:55.752Z,24.10
2018-11-21T11:46:55.712Z,21.70
2018-11-21T11:47:55.671Z,24.00
2018-11-21T11:48:55.632Z,23.70
2018-11-21T11:49:55.589Z,24.80
2018-11-21T11:50:55.546Z,28.60
2018-11-21T11:51:55.508Z,22.90
2018-11-21T11:52:55.466Z,23.60
2018-11-21T11:53:55.427Z,26.30
2018-11-21T11:54:55.381Z,25.60
2018-11-21T11:55:55.339Z,24.10
2018-11-21T11:56:55.294Z,22.00
2018-11-21T11:57:55.253Z,24.20
2018-11-21T11:58:55.213Z,25.70
2018-11-21T11:59:55.173Z,24.90
2018-11-21T12:00:55.134Z,22.90
2018-11-21T12:01:55.092Z,24.20
2018-11-21T12:02:55.056Z,22.70
2018-11-21T12:03:57.855Z,25.10
2018-11-21T12:04:54.962Z,24.60
2018-11-21T12:05:54.925Z,23.30
2018-11-21T12:06:54.886Z,23.70
2018-11-21T12:07:54.840Z,26.50
2018-11-21T12:08:54.795Z,27.90
2018-11-21T12:09:54.755Z,25.70
2018-11-21T12:10:54.718Z,23.40
2018-11-21T12:11:54.674Z,24.50
2018-11-21T12:12:54.636Z,25.10
2018-11-21T12:13:54.593Z,26.40
2018-11-21T12:14:54.551Z,26.30
2018-11-21T12:15:54.505Z,25.30
2018-11-21T12:16:54.463Z,25.20
2018-11-21T12:17:54.422Z,24.40
2018-11-21T12:18:54.381Z,24.40
2018-11-21T12:19:54.344Z,24.60
2018-11-21T12:20:54.302Z,23.40
2018-11-21T12:21:54.253Z,23.80
2018-11-21T12:22:54.214Z,29.90
2018-11-21T12:23:54.175Z,26.00
2018-11-21T12:24:54.133Z,31.80
2018-11-21T12:25:54.092Z,27.70
2018-11-21T12:26:54.050Z,30.50
2018-11-21T12:27:54.004Z,25.90
2018-11-21T12:28:53.961Z,28.00
2018-11-21T12:29:53.920Z,29.10
2018-11-21T12:30:53.878Z,25.40
2018-11-21T12:31:53.840Z,28.30
2018-11-21T12:32:53.809Z,25.70
2018-11-21T12:33:53.757Z,29.10
2018-11-21T12:34:53.717Z,26.10
2018-11-21T12:35:53.670Z,26.00
2018-11-21T12:36:53.627Z,27.40
2018-11-21T12:37:53.594Z,27.90
2018-11-21T12:38:53.547Z,30.60
2018-11-21T12:39:53.506Z,27.80
2018-11-21T12:40:53.458Z,28.50
2018-11-21T12:41:53.417Z,26.70
2018-11-21T12:42:53.379Z,26.80
2018-11-21T12:43:53.673Z,25.30
2018-11-21T12:44:53.295Z,28.00
2018-11-21T12:45:53.255Z,28.50
2018-11-21T12:46:53.210Z,27.90
2018-11-21T12:47:53.165Z,28.20
2018-11-21T12:48:53.122Z,28.80
2018-11-21T12:49:53.080Z,28.30
2018-11-21T12:50:53.041Z,26.20
2018-11-21T12:51:52.999Z,28.00
2018-11-21T12:52:52.959Z,28.10
2018-11-21T12:53:52.913Z,29.10
2018-11-21T12:54:52.873Z,30.10
2018-11-21T12:55:52.830Z,25.30
2018-11-21T12:56:52.794Z,33.40
2018-11-21T12:57:52.748Z,27.80
2018-11-21T12:58:52.707Z,28.90
2018-11-21T12:59:52.661Z,26.50
2018-11-21T13:00:52.616Z,25.80
2018-11-21T13:01:52.577Z,33.70
2018-11-21T13:02:52.535Z,27.90
2018-11-21T13:03:52.493Z,26.00
2018-11-21T13:04:52.458Z,27.40
2018-11-21T13:05:52.415Z,27.50
2018-11-21T13:06:52.368Z,28.80
2018-11-21T13:07:52.325Z,27.80
2018-11-21T13:08:52.293Z,28.90
2018-11-21T13:09:56.666Z,27.10
2018-11-21T13:10:52.200Z,31.00
2018-11-21T13:11:52.156Z,28.30
2018-11-21T13:12:52.111Z,28.10
2018-11-21T13:13:52.069Z,26.50
2018-11-21T13:14:52.029Z,27.60
2018-11-21T13:15:51.990Z,26.90
2018-11-21T13:16:51.951Z,27.50
2018-11-21T13:17:51.909Z,28.50
2018-11-21T13:18:51.863Z,26.90
2018-11-21T13:19:51.817Z,25.40
2018-11-21T13:20:51.776Z,28.60